Airfield :
LOGIN :

Register | Disclaimer

   EN    FR    IT 

 










Legend :    VFR   Marginal VFR   IFR   Intensive IFR   Very Intensive IFR
Visi :
Ceiling :
>= 8 km
>= 3000ft
5 to 8 km
1000 to 3000 ft
1500m to 5 km
500 to 1000 ft
800 to 1500m
200 to 500 ft
< 800m
< 200 ft
Symbols :   Thunderstorms  Fog  Heavy snow  Heavy precipitations  Wind > 20 kt
SIGMETs :     Misc.  Thunderstorms  Icing  Turbulence  Mountain Waves  Volcanic Ashes






- Airport Elevation : 218 ft
- IATA code : LBG


LFPB - Paris / Le Bourget

CURRENT METAR :
  • 152200Z AUTO 21008KT CAVOK 13/09 Q1011 NOSIG

EXPIRED METARs :
  • 152130Z AUTO 20008KT 9999 FEW040 13/09 Q1011 NOSIG
  • 152100Z AUTO 20006KT CAVOK 13/09 Q1011 NOSIG
  • 152030Z AUTO 20007KT CAVOK 13/09 Q1011 NOSIG
  • 152000Z AUTO 22010KT 9999 FEW029/// BKN062/// OVC072/// ///TCU 13/09 Q1011 BECMG BKN040
  • 151930Z AUTO 22009KT 9999 SCT030/// BKN038/// BKN048/// ///TCU 14/09 Q1011 BECMG BKN040

TAF AMD TAF LFPB
Valid from the 15 at 18:00 until the 16 at 18:00 UTC


151814Z 1518/1618 22010KT 9999 BKN040
PROB40
TEMPO 1518/1520 23015G25KT 4000 -SHRA SCT040CB
BECMG 1600/1602 4000 -RA BKN012
PROB40
TEMPO 1602/1618 2500 RA BKN007
TEMPO 1606/1618 19015G25KT
ATIS : +33 1 48 62 43 92



MET'MAP, your aeronautical weather chart ! - Copyright ORBIFLY December 2007 - Disclaimer

ORBIFLY MET'MAP TEAM :

Programming & Development : Alexandra Zaïnal
Concept & Development : Baudouin d'Aumeries
Co-Development & Prog : Marc-Olivier Méhu
Technical & hardware support : Manuel Goepfert

Contact : metmap@orbifly.com




SOURCES & CREDITS :

   NOAA